sensor_id;sensor_type;location;lat;lon;timestamp;P1;durP1;ratioP1;P2;durP2;ratioP2
53644;SDS011;39547;45.554;12.068;2023-04-06T00:05:08;33.53;;;18.30;;
53644;SDS011;39547;45.554;12.068;2023-04-06T00:11:09;28.42;;;15.65;;
53644;SDS011;39547;45.554;12.068;2023-04-06T00:17:11;28.75;;;15.98;;
53644;SDS011;39547;45.554;12.068;2023-04-06T00:23:13;31.73;;;16.23;;
53644;SDS011;39547;45.554;12.068;2023-04-06T00:29:14;26.70;;;14.55;;
53644;SDS011;39547;45.554;12.068;2023-04-06T00:35:16;28.17;;;15.45;;
53644;SDS011;39547;45.554;12.068;2023-04-06T00:41:17;28.48;;;15.45;;
53644;SDS011;39547;45.554;12.068;2023-04-06T00:47:19;28.70;;;15.65;;
53644;SDS011;39547;45.554;12.068;2023-04-06T00:53:22;26.33;;;14.10;;
53644;SDS011;39547;45.554;12.068;2023-04-06T00:59:27;32.87;;;17.50;;
53644;SDS011;39547;45.554;12.068;2023-04-06T01:05:32;32.83;;;15.90;;
53644;SDS011;39547;45.554;12.068;2023-04-06T01:11:35;28.40;;;14.55;;
53644;SDS011;39547;45.554;12.068;2023-04-06T01:17:40;30.33;;;15.95;;
53644;SDS011;39547;45.554;12.068;2023-04-06T01:23:47;24.88;;;13.15;;
53644;SDS011;39547;45.554;12.068;2023-04-06T01:29:55;27.33;;;14.65;;
53644;SDS011;39547;45.554;12.068;2023-04-06T01:36:10;26.85;;;14.05;;
53644;SDS011;39547;45.554;12.068;2023-04-06T01:42:11;30.80;;;16.25;;
53644;SDS011;39547;45.554;12.068;2023-04-06T01:48:15;26.70;;;14.65;;
53644;SDS011;39547;45.554;12.068;2023-04-06T01:54:18;30.15;;;14.65;;
53644;SDS011;39547;45.554;12.068;2023-04-06T02:00:32;22.48;;;11.75;;
53644;SDS011;39547;45.554;12.068;2023-04-06T02:06:35;27.33;;;14.82;;
53644;SDS011;39547;45.554;12.068;2023-04-06T02:12:39;25.67;;;13.73;;
53644;SDS011;39547;45.554;12.068;2023-04-06T02:18:44;29.80;;;14.82;;
53644;SDS011;39547;45.554;12.068;2023-04-06T02:24:46;25.77;;;13.05;;
53644;SDS011;39547;45.554;12.068;2023-04-06T02:30:48;26.20;;;13.38;;
53644;SDS011;39547;45.554;12.068;2023-04-06T02:36:49;27.33;;;13.20;;
53644;SDS011;39547;45.554;12.068;2023-04-06T02:42:51;28.50;;;13.77;;
53644;SDS011;39547;45.554;12.068;2023-04-06T02:49:00;30.70;;;15.00;;
53644;SDS011;39547;45.554;12.068;2023-04-06T02:55:05;26.50;;;12.93;;
53644;SDS011;39547;45.554;12.068;2023-04-06T03:01:08;28.17;;;14.23;;
53644;SDS011;39547;45.554;12.068;2023-04-06T03:07:11;26.27;;;13.82;;
53644;SDS011;39547;45.554;12.068;2023-04-06T03:13:14;23.80;;;11.75;;
53644;SDS011;39547;45.554;12.068;2023-04-06T03:19:27;22.80;;;11.82;;
53644;SDS011;39547;45.554;12.068;2023-04-06T03:25:33;22.83;;;10.70;;
53644;SDS011;39547;45.554;12.068;2023-04-06T03:31:38;23.00;;;11.20;;
53644;SDS011;39547;45.554;12.068;2023-04-06T03:37:44;28.10;;;14.27;;
53644;SDS011;39547;45.554;12.068;2023-04-06T03:43:46;24.05;;;12.07;;
53644;SDS011;39547;45.554;12.068;2023-04-06T03:49:48;24.75;;;12.05;;
53644;SDS011;39547;45.554;12.068;2023-04-06T03:55:50;25.70;;;11.80;;
53644;SDS011;39547;45.554;12.068;2023-04-06T04:01:52;25.67;;;11.45;;
53644;SDS011;39547;45.554;12.068;2023-04-06T04:07:54;22.10;;;11.00;;
53644;SDS011;39547;45.554;12.068;2023-04-06T04:14:00;22.70;;;11.05;;
53644;SDS011;39547;45.554;12.068;2023-04-06T04:20:01;19.92;;;9.55;;
53644;SDS011;39547;45.554;12.068;2023-04-06T04:26:03;25.00;;;11.35;;
53644;SDS011;39547;45.554;12.068;2023-04-06T04:32:05;24.70;;;11.18;;
53644;SDS011;39547;45.554;12.068;2023-04-06T04:38:08;23.40;;;11.13;;
53644;SDS011;39547;45.554;12.068;2023-04-06T04:44:14;24.77;;;11.05;;
53644;SDS011;39547;45.554;12.068;2023-04-06T04:50:17;24.75;;;10.85;;
53644;SDS011;39547;45.554;12.068;2023-04-06T04:56:20;22.13;;;9.93;;
53644;SDS011;39547;45.554;12.068;2023-04-06T05:02:27;21.73;;;10.10;;
53644;SDS011;39547;45.554;12.068;2023-04-06T05:08:44;18.17;;;8.32;;
53644;SDS011;39547;45.554;12.068;2023-04-06T05:14:47;21.70;;;9.20;;
53644;SDS011;39547;45.554;12.068;2023-04-06T05:20:51;21.27;;;8.75;;
53644;SDS011;39547;45.554;12.068;2023-04-06T05:26:56;20.63;;;8.88;;
53644;SDS011;39547;45.554;12.068;2023-04-06T05:32:59;18.20;;;8.35;;
53644;SDS011;39547;45.554;12.068;2023-04-06T05:39:06;20.00;;;8.95;;
53644;SDS011;39547;45.554;12.068;2023-04-06T05:45:17;17.67;;;8.15;;
53644;SDS011;39547;45.554;12.068;2023-04-06T05:51:24;18.70;;;7.95;;
53644;SDS011;39547;45.554;12.068;2023-04-06T05:57:27;18.92;;;7.68;;
53644;SDS011;39547;45.554;12.068;2023-04-06T06:03:29;17.90;;;7.55;;
53644;SDS011;39547;45.554;12.068;2023-04-06T06:09:32;16.65;;;7.07;;
53644;SDS011;39547;45.554;12.068;2023-04-06T06:15:43;18.20;;;7.15;;
53644;SDS011;39547;45.554;12.068;2023-04-06T06:21:45;17.42;;;7.18;;
53644;SDS011;39547;45.554;12.068;2023-04-06T06:27:47;16.27;;;6.50;;
53644;SDS011;39547;45.554;12.068;2023-04-06T06:33:51;18.77;;;6.82;;
53644;SDS011;39547;45.554;12.068;2023-04-06T06:39:54;26.95;;;7.40;;
53644;SDS011;39547;45.554;12.068;2023-04-06T06:45:56;112.32;;;16.65;;
53644;SDS011;39547;45.554;12.068;2023-04-06T06:51:59;49.35;;;11.52;;
53644;SDS011;39547;45.554;12.068;2023-04-06T06:58:01;25.95;;;8.77;;
53644;SDS011;39547;45.554;12.068;2023-04-06T07:04:03;25.30;;;8.32;;
53644;SDS011;39547;45.554;12.068;2023-04-06T07:10:05;17.15;;;6.57;;
53644;SDS011;39547;45.554;12.068;2023-04-06T07:16:07;166.75;;;18.70;;
53644;SDS011;39547;45.554;12.068;2023-04-06T07:22:09;81.88;;;13.30;;
53644;SDS011;39547;45.554;12.068;2023-04-06T07:28:11;30.70;;;8.27;;
53644;SDS011;39547;45.554;12.068;2023-04-06T07:34:13;21.15;;;6.32;;
53644;SDS011;39547;45.554;12.068;2023-04-06T07:40:14;15.10;;;5.43;;
53644;SDS011;39547;45.554;12.068;2023-04-06T07:46:17;13.88;;;4.90;;
53644;SDS011;39547;45.554;12.068;2023-04-06T07:52:18;15.82;;;6.35;;
53644;SDS011;39547;45.554;12.068;2023-04-06T07:58:20;18.80;;;6.72;;
53644;SDS011;39547;45.554;12.068;2023-04-06T08:04:22;15.07;;;6.03;;
53644;SDS011;39547;45.554;12.068;2023-04-06T08:10:23;15.43;;;5.72;;
53644;SDS011;39547;45.554;12.068;2023-04-06T08:16:25;16.13;;;5.78;;
53644;SDS011;39547;45.554;12.068;2023-04-06T08:22:27;15.40;;;5.32;;
53644;SDS011;39547;45.554;12.068;2023-04-06T08:28:28;15.57;;;5.60;;
53644;SDS011;39547;45.554;12.068;2023-04-06T08:34:31;14.38;;;5.05;;
53644;SDS011;39547;45.554;12.068;2023-04-06T08:40:37;15.38;;;5.90;;
53644;SDS011;39547;45.554;12.068;2023-04-06T08:46:39;16.98;;;6.30;;
53644;SDS011;39547;45.554;12.068;2023-04-06T08:52:41;13.52;;;4.72;;
53644;SDS011;39547;45.554;12.068;2023-04-06T08:58:47;13.48;;;4.50;;
53644;SDS011;39547;45.554;12.068;2023-04-06T09:04:50;15.05;;;5.20;;
53644;SDS011;39547;45.554;12.068;2023-04-06T09:10:54;14.50;;;4.82;;
53644;SDS011;39547;45.554;12.068;2023-04-06T09:16:56;15.70;;;6.20;;
53644;SDS011;39547;45.554;12.068;2023-04-06T09:22:57;15.82;;;6.15;;
53644;SDS011;39547;45.554;12.068;2023-04-06T09:28:59;14.38;;;5.50;;
53644;SDS011;39547;45.554;12.068;2023-04-06T09:35:08;13.65;;;5.15;;
53644;SDS011;39547;45.554;12.068;2023-04-06T09:41:10;14.68;;;5.10;;
53644;SDS011;39547;45.554;12.068;2023-04-06T09:47:11;15.43;;;5.60;;
53644;SDS011;39547;45.554;12.068;2023-04-06T09:53:14;14.70;;;6.05;;
53644;SDS011;39547;45.554;12.068;2023-04-06T09:59:29;15.80;;;6.03;;
53644;SDS011;39547;45.554;12.068;2023-04-06T10:05:43;16.58;;;6.65;;
53644;SDS011;39547;45.554;12.068;2023-04-06T10:11:51;14.75;;;6.03;;
53644;SDS011;39547;45.554;12.068;2023-04-06T10:17:53;15.80;;;7.00;;
53644;SDS011;39547;45.554;12.068;2023-04-06T10:23:57;15.13;;;6.60;;
53644;SDS011;39547;45.554;12.068;2023-04-06T10:30:05;16.88;;;6.80;;
53644;SDS011;39547;45.554;12.068;2023-04-06T10:36:11;15.80;;;6.90;;
53644;SDS011;39547;45.554;12.068;2023-04-06T10:42:13;14.48;;;5.82;;
53644;SDS011;39547;45.554;12.068;2023-04-06T10:48:15;15.85;;;6.53;;
53644;SDS011;39547;45.554;12.068;2023-04-06T10:54:18;18.00;;;7.53;;
53644;SDS011;39547;45.554;12.068;2023-04-06T11:00:21;15.85;;;7.40;;
53644;SDS011;39547;45.554;12.068;2023-04-06T11:06:24;16.25;;;6.93;;
53644;SDS011;39547;45.554;12.068;2023-04-06T11:12:27;15.20;;;6.70;;
53644;SDS011;39547;45.554;12.068;2023-04-06T11:18:31;18.08;;;8.50;;
53644;SDS011;39547;45.554;12.068;2023-04-06T11:24:32;18.42;;;8.52;;
53644;SDS011;39547;45.554;12.068;2023-04-06T11:30:34;21.17;;;9.27;;
53644;SDS011;39547;45.554;12.068;2023-04-06T11:36:35;17.58;;;8.52;;
53644;SDS011;39547;45.554;12.068;2023-04-06T11:42:40;18.55;;;8.55;;
53644;SDS011;39547;45.554;12.068;2023-04-06T11:48:45;17.15;;;6.97;;
53644;SDS011;39547;45.554;12.068;2023-04-06T11:54:48;17.98;;;8.23;;
53644;SDS011;39547;45.554;12.068;2023-04-06T12:00:51;16.07;;;6.73;;
53644;SDS011;39547;45.554;12.068;2023-04-06T12:06:53;20.75;;;9.75;;
53644;SDS011;39547;45.554;12.068;2023-04-06T12:12:55;19.67;;;8.88;;
53644;SDS011;39547;45.554;12.068;2023-04-06T12:18:56;18.42;;;8.82;;
53644;SDS011;39547;45.554;12.068;2023-04-06T12:24:58;18.45;;;9.48;;
53644;SDS011;39547;45.554;12.068;2023-04-06T12:31:00;19.90;;;9.70;;
53644;SDS011;39547;45.554;12.068;2023-04-06T12:37:01;21.98;;;10.48;;
53644;SDS011;39547;45.554;12.068;2023-04-06T12:43:03;19.30;;;10.07;;
53644;SDS011;39547;45.554;12.068;2023-04-06T12:49:05;17.45;;;9.38;;
53644;SDS011;39547;45.554;12.068;2023-04-06T12:55:07;17.70;;;8.43;;
53644;SDS011;39547;45.554;12.068;2023-04-06T13:01:09;18.58;;;10.07;;
53644;SDS011;39547;45.554;12.068;2023-04-06T13:07:12;19.00;;;9.37;;
53644;SDS011;39547;45.554;12.068;2023-04-06T13:13:14;20.65;;;10.45;;
53644;SDS011;39547;45.554;12.068;2023-04-06T13:19:16;18.80;;;10.50;;
53644;SDS011;39547;45.554;12.068;2023-04-06T13:25:19;20.08;;;10.20;;
53644;SDS011;39547;45.554;12.068;2023-04-06T13:31:20;20.60;;;10.90;;
53644;SDS011;39547;45.554;12.068;2023-04-06T13:37:22;18.33;;;8.77;;
53644;SDS011;39547;45.554;12.068;2023-04-06T13:43:24;20.75;;;10.60;;
53644;SDS011;39547;45.554;12.068;2023-04-06T13:49:27;17.70;;;9.18;;
53644;SDS011;39547;45.554;12.068;2023-04-06T13:55:29;16.45;;;8.48;;
53644;SDS011;39547;45.554;12.068;2023-04-06T14:01:32;17.30;;;8.57;;
53644;SDS011;39547;45.554;12.068;2023-04-06T14:07:34;18.53;;;9.23;;
53644;SDS011;39547;45.554;12.068;2023-04-06T14:13:36;18.05;;;8.57;;
53644;SDS011;39547;45.554;12.068;2023-04-06T14:19:37;20.55;;;10.50;;
53644;SDS011;39547;45.554;12.068;2023-04-06T14:25:39;17.80;;;9.23;;
53644;SDS011;39547;45.554;12.068;2023-04-06T14:31:41;21.17;;;10.95;;
53644;SDS011;39547;45.554;12.068;2023-04-06T14:37:42;19.98;;;9.40;;
53644;SDS011;39547;45.554;12.068;2023-04-06T14:43:44;19.00;;;9.23;;
53644;SDS011;39547;45.554;12.068;2023-04-06T14:49:48;19.13;;;9.80;;
53644;SDS011;39547;45.554;12.068;2023-04-06T14:55:51;19.30;;;9.95;;
53644;SDS011;39547;45.554;12.068;2023-04-06T15:01:52;17.77;;;8.20;;
53644;SDS011;39547;45.554;12.068;2023-04-06T15:07:54;17.05;;;7.95;;
53644;SDS011;39547;45.554;12.068;2023-04-06T15:13:55;17.60;;;8.15;;
53644;SDS011;39547;45.554;12.068;2023-04-06T15:19:57;17.50;;;7.18;;
53644;SDS011;39547;45.554;12.068;2023-04-06T15:25:58;17.88;;;8.18;;
53644;SDS011;39547;45.554;12.068;2023-04-06T15:32:00;17.40;;;7.75;;
53644;SDS011;39547;45.554;12.068;2023-04-06T15:38:02;20.48;;;8.88;;
53644;SDS011;39547;45.554;12.068;2023-04-06T15:44:04;18.35;;;8.10;;
53644;SDS011;39547;45.554;12.068;2023-04-06T15:50:06;17.98;;;7.90;;
53644;SDS011;39547;45.554;12.068;2023-04-06T15:56:08;16.60;;;7.40;;
53644;SDS011;39547;45.554;12.068;2023-04-06T16:02:10;17.92;;;7.38;;
53644;SDS011;39547;45.554;12.068;2023-04-06T16:08:12;19.25;;;8.82;;
53644;SDS011;39547;45.554;12.068;2023-04-06T16:14:16;17.75;;;8.10;;
53644;SDS011;39547;45.554;12.068;2023-04-06T16:20:18;17.55;;;7.15;;
53644;SDS011;39547;45.554;12.068;2023-04-06T16:26:20;17.70;;;6.47;;
53644;SDS011;39547;45.554;12.068;2023-04-06T16:32:22;15.98;;;6.43;;
53644;SDS011;39547;45.554;12.068;2023-04-06T16:38:23;16.13;;;6.63;;
53644;SDS011;39547;45.554;12.068;2023-04-06T16:44:25;15.77;;;6.18;;
53644;SDS011;39547;45.554;12.068;2023-04-06T16:50:27;14.43;;;5.82;;
53644;SDS011;39547;45.554;12.068;2023-04-06T16:56:29;14.82;;;5.78;;
53644;SDS011;39547;45.554;12.068;2023-04-06T17:02:31;14.80;;;5.20;;
53644;SDS011;39547;45.554;12.068;2023-04-06T17:08:35;15.65;;;6.20;;
53644;SDS011;39547;45.554;12.068;2023-04-06T17:14:37;15.50;;;6.13;;
53644;SDS011;39547;45.554;12.068;2023-04-06T17:20:38;15.63;;;6.32;;
53644;SDS011;39547;45.554;12.068;2023-04-06T17:26:41;15.75;;;6.40;;
53644;SDS011;39547;45.554;12.068;2023-04-06T17:32:42;15.52;;;6.00;;
53644;SDS011;39547;45.554;12.068;2023-04-06T17:38:44;16.67;;;6.43;;
53644;SDS011;39547;45.554;12.068;2023-04-06T17:44:46;16.02;;;5.57;;
53644;SDS011;39547;45.554;12.068;2023-04-06T17:50:48;17.63;;;6.40;;
53644;SDS011;39547;45.554;12.068;2023-04-06T17:56:50;15.95;;;6.72;;
53644;SDS011;39547;45.554;12.068;2023-04-06T18:02:53;16.38;;;6.15;;
53644;SDS011;39547;45.554;12.068;2023-04-06T18:08:55;15.48;;;6.90;;
53644;SDS011;39547;45.554;12.068;2023-04-06T18:14:56;14.43;;;6.18;;
53644;SDS011;39547;45.554;12.068;2023-04-06T18:20:58;14.60;;;6.00;;
53644;SDS011;39547;45.554;12.068;2023-04-06T18:27:04;18.35;;;8.45;;
53644;SDS011;39547;45.554;12.068;2023-04-06T18:33:05;18.23;;;7.63;;
53644;SDS011;39547;45.554;12.068;2023-04-06T18:39:07;18.20;;;8.38;;
53644;SDS011;39547;45.554;12.068;2023-04-06T18:45:09;16.70;;;7.15;;
53644;SDS011;39547;45.554;12.068;2023-04-06T18:51:11;17.70;;;8.43;;
53644;SDS011;39547;45.554;12.068;2023-04-06T18:57:12;17.88;;;8.35;;
53644;SDS011;39547;45.554;12.068;2023-04-06T19:03:14;18.25;;;8.13;;
53644;SDS011;39547;45.554;12.068;2023-04-06T19:09:15;18.65;;;8.80;;
53644;SDS011;39547;45.554;12.068;2023-04-06T19:15:17;18.55;;;8.98;;
53644;SDS011;39547;45.554;12.068;2023-04-06T19:21:19;20.40;;;9.82;;
53644;SDS011;39547;45.554;12.068;2023-04-06T19:27:22;18.33;;;8.85;;
53644;SDS011;39547;45.554;12.068;2023-04-06T19:33:24;19.65;;;9.20;;
53644;SDS011;39547;45.554;12.068;2023-04-06T19:39:25;20.00;;;10.02;;
53644;SDS011;39547;45.554;12.068;2023-04-06T19:45:27;20.60;;;9.73;;
53644;SDS011;39547;45.554;12.068;2023-04-06T19:51:32;20.60;;;11.35;;
53644;SDS011;39547;45.554;12.068;2023-04-06T19:57:34;23.73;;;12.55;;
53644;SDS011;39547;45.554;12.068;2023-04-06T20:03:36;20.00;;;10.93;;
53644;SDS011;39547;45.554;12.068;2023-04-06T20:09:37;21.40;;;11.43;;
53644;SDS011;39547;45.554;12.068;2023-04-06T20:15:39;26.02;;;14.98;;
53644;SDS011;39547;45.554;12.068;2023-04-06T20:21:40;26.15;;;14.70;;
53644;SDS011;39547;45.554;12.068;2023-04-06T20:27:43;31.88;;;18.30;;
53644;SDS011;39547;45.554;12.068;2023-04-06T20:33:45;32.35;;;18.50;;
53644;SDS011;39547;45.554;12.068;2023-04-06T20:39:47;24.33;;;13.23;;
53644;SDS011;39547;45.554;12.068;2023-04-06T20:45:48;25.92;;;13.63;;
53644;SDS011;39547;45.554;12.068;2023-04-06T20:51:50;31.00;;;17.10;;
53644;SDS011;39547;45.554;12.068;2023-04-06T20:57:51;28.50;;;14.95;;
53644;SDS011;39547;45.554;12.068;2023-04-06T21:03:53;26.77;;;14.90;;
53644;SDS011;39547;45.554;12.068;2023-04-06T21:09:54;35.22;;;19.40;;
53644;SDS011;39547;45.554;12.068;2023-04-06T21:15:56;35.63;;;22.63;;
53644;SDS011;39547;45.554;12.068;2023-04-06T21:21:58;33.33;;;19.98;;
53644;SDS011;39547;45.554;12.068;2023-04-06T21:27:59;30.20;;;17.60;;
53644;SDS011;39547;45.554;12.068;2023-04-06T21:34:01;29.00;;;17.88;;
53644;SDS011;39547;45.554;12.068;2023-04-06T21:40:02;39.15;;;22.80;;
53644;SDS011;39547;45.554;12.068;2023-04-06T21:46:05;34.33;;;18.85;;
53644;SDS011;39547;45.554;12.068;2023-04-06T21:52:07;34.20;;;19.25;;
53644;SDS011;39547;45.554;12.068;2023-04-06T21:58:09;38.28;;;20.55;;
53644;SDS011;39547;45.554;12.068;2023-04-06T22:04:11;34.40;;;19.67;;
53644;SDS011;39547;45.554;12.068;2023-04-06T22:10:12;32.80;;;18.50;;
53644;SDS011;39547;45.554;12.068;2023-04-06T22:16:14;37.65;;;20.50;;
53644;SDS011;39547;45.554;12.068;2023-04-06T22:22:18;31.17;;;17.70;;
53644;SDS011;39547;45.554;12.068;2023-04-06T22:28:19;34.40;;;19.83;;
53644;SDS011;39547;45.554;12.068;2023-04-06T22:34:21;36.28;;;22.05;;
53644;SDS011;39547;45.554;12.068;2023-04-06T22:40:23;35.55;;;20.77;;
53644;SDS011;39547;45.554;12.068;2023-04-06T22:46:24;39.67;;;23.92;;
53644;SDS011;39547;45.554;12.068;2023-04-06T22:52:26;32.53;;;19.27;;
53644;SDS011;39547;45.554;12.068;2023-04-06T22:58:27;32.65;;;18.52;;
53644;SDS011;39547;45.554;12.068;2023-04-06T23:04:29;34.55;;;20.05;;
53644;SDS011;39547;45.554;12.068;2023-04-06T23:10:30;31.73;;;18.40;;
53644;SDS011;39547;45.554;12.068;2023-04-06T23:16:32;31.42;;;17.95;;
53644;SDS011;39547;45.554;12.068;2023-04-06T23:22:34;37.70;;;22.00;;
53644;SDS011;39547;45.554;12.068;2023-04-06T23:28:35;34.92;;;20.08;;
53644;SDS011;39547;45.554;12.068;2023-04-06T23:34:37;39.13;;;23.65;;
53644;SDS011;39547;45.554;12.068;2023-04-06T23:40:38;39.33;;;22.13;;
53644;SDS011;39547;45.554;12.068;2023-04-06T23:46:40;36.90;;;20.20;;
53644;SDS011;39547;45.554;12.068;2023-04-06T23:52:41;32.88;;;19.20;;
53644;SDS011;39547;45.554;12.068;2023-04-06T23:58:43;32.42;;;18.23;;
